Galt, CA (95632)

1:51 AM PDT on September 17, 2014 (GMT -0700)
Galt, CA | Change Station
CLOSE
Current Station
Personal Weather Station
Location: Galt, CA
Elevation: 52 ft
Nearby Weather Stations

Elev 52 ft 38.28 °N, 121.28 °W | Updated 13 seconds ago

Clear
Clear
63.5 °F
Feels Like 63.5 °F
N
0.0
Wind Variable Wind from East
Gusts 0.0 mph

Today
High -- | Low -- °F
--% Chance of Precip.
Yesterday
High -- | Low -- °F
Precip. -- in
6:48 AM 7:09 PM
Last Quarter, 38% visible
Pressure 29.79 in
Visibility 10.0 miles
Clouds Scattered Clouds 20000 ft
Dew Point 55 °F
Humidity 74%
Rainfall -999.00 in
Snow Depth Not available.
UV 0 out of 12
Pollen 6.40 out of 12
Ozone Good
PM2.5 Good
Flu Activity Not available.
METAR KMHR 170559Z 13004KT 10SM SCT200 20/12 A2979

More Conditions Fewer Conditions

Pressure 29.79 in
Visibility 10.0 miles
Clouds Scattered Clouds 20000 ft
Dew Point 55 °F
Humidity 74%
Rainfall -999.00 in
Snow Depth Not available.
UV 0 out of 12
Pollen 6.40 out of 12
Ozone Good
PM2.5 Good
Flu Activity Not available.
METAR KMHR 170559Z 13004KT 10SM SCT200 20/12 A2979

More Conditions Fewer Conditions

10-Day Weather Forecast

Almanac

Astronomy

Sep. 17, 2014 Rise Set
Actual Time 6:48 AM PDT 7:09 PM PDT
Civil Twilight 6:22 AM PDT 7:36 PM PDT
Nautical Twilight 5:51 AM PDT 8:07 PM PDT
Astronomical Twilight 5:19 AM PDT 8:38 PM PDT
Moon 12:56 AM PDT 3:20 PM PDT
Length of Visible Light 13h 14m
Length of Day
12h 21m
Tomorrow will be 2m 26s shorter.
Last Quarter, 38% of the Moon is Illuminated
Today
Last Quarter
Sep 24
New
Oct 1
First Quarter
Oct 8
Full
Oct 15
Last Quarter

Today's Extremes

State Highs State Lows

Community

WunderPhotos

Upload Photos

1,753,990 photos uploaded!

Nearby

Air Quality

  Air Quality AQ Index Pollutant
Yesterday Good
PM10
Yesterday Good
OZONE
Current Good
PM2.5
Current Good
OZONE
Tuesday Good
OZONE
Wednesday Good
OZONE
Thursday Good
OZONE
Friday Good
OZONE
Saturday Moderate
OZONE
Sunday Moderate
OZONE

Snow Depth

Station Depth Elevation
Echo Peak 0 in 7800 ft
Monitor Pass 0 in 8350 ft
Blue Lakes 0 in 8000 ft
Spratt Creek 0 in 6200 ft
Rubicon #2 0 in 7500 ft

Earthquake Activity

City Distance Mag. Time & Date
Cobb, California 85 miles 2.7 1:23 PM PDT
2014-09-16
Covelo, California 142 miles 3.3 1:17 PM PDT
2014-09-14
Cobb, California 89 miles 2.7 11:07 AM PDT
2014-09-14
Minimum magnitude displayed is 2.5.

Coastal Water Temperatures

Place Temperature
San Francisco, CA 64.0 °F
Richmond, CA 69.1 °F
Port Chicago, CA 70.0 °F

Nearby Weather Stations